EDDE

Erfurt Airport

Erfurt, Germany
METAR EDDE 152020Z 06003KT CAVOK 21/07 Q1016
Observed Flight Rules
Jul-15 @ 20:20 UTC (39 minutes ago) Visual Flight Rules
Wind Visibility Clouds
60° at 3 knots 10,000+ meters
  • Clear skies
Temperatures Readings
Current 21°C / 70°F
Dewpoint 7°C / 45°F
Humidity 40%
Altimeter 30" Hg
Pressure 1016 hPa
Elevation 323
METAR EDDE 152020Z 06003KT CAVOK 21/07 Q1016
Observed Flight Rules
Jul-15 @ 20:20 UTC
(39 minutes ago)
VFR
Wind Visibility
60° at 3 knots 10,000+ meters
Clouds
  • Clear skies
Temperature Dewpoint
21°C / 70°F 7°C / 45°F
Humidity Altimeter Pressure
40% 30" Hg 1016 hPa